Boynton Beach, Florida
Current Conditions -  °F | °C
As of 7:53 PM on Friday 24 Oct 2014 (Local Time) from KBCT Reporting Station
Overcast Overcast  
Wind Chill: 75°   Ceiling: 3600
Heat Index: 75°   Visibility: 10mi
Dew Point: 70°   Wind: 14mph
Humidity: 83%   Direction: 40°NE
Pressure: 29.85"   Gusts: 22mph
Location:  26.53°N, 80.06°W
Report Text: KBCT 242353Z 04012G19KT 10SM SCT029 OVC036 24/21 A2985
Loading
Personal Weather Stations






























Interactive Weather Map New forecast layout! Learn more

10-Day Weather Forecast

Advertisements
Track Severe Weather on mobile